Time;durP1;ratioP1;P1;durP2;ratioP2;P2;SDS_P1;SDS_P2;PMS_P1;PMS_P2;Temp;Humidity;BMP_temperature;BMP_pressure;BME280_temperature;BME280_humidity;BME280_pressure;Samples;Min_cycle;Max_cycle;Signal;HPM_P1;HPM_P2
2021/09/14 00:01:15;;;;;;;8.30;4.78;;;;;;;15.34;81.20;100931.76;1736202;81;25320;-79
2021/09/14 00:03:42;;;;;;;7.40;4.60;;;;;;;15.31;81.25;100936.21;1689067;82;27574;-79
2021/09/14 00:06:09;;;;;;;5.70;4.95;;;;;;;15.31;81.47;100932.70;1681297;81;26072;-79
2021/09/14 00:08:36;;;;;;;7.45;5.17;;;;;;;15.31;81.65;100934.86;1727010;81;25865;-79
2021/09/14 00:11:03;;;;;;;6.15;4.28;;;;;;;15.31;81.92;100930.81;1758409;81;25808;-79
2021/09/14 00:13:30;;;;;;;8.68;5.08;;;;;;;15.32;81.93;100928.95;1733673;81;26667;-78
2021/09/14 00:15:57;;;;;;;6.92;4.67;;;;;;;15.35;82.12;100928.55;1694473;81;27388;-79
2021/09/14 00:18:24;;;;;;;6.37;4.75;;;;;;;15.37;82.29;100928.66;1750887;81;25978;-79
2021/09/14 00:20:51;;;;;;;6.55;5.05;;;;;;;15.42;82.55;100929.34;1725365;81;25825;-79
2021/09/14 00:23:18;;;;;;;13.13;5.40;;;;;;;15.42;82.52;100932.05;1725507;81;26632;-78
2021/09/14 00:25:45;;;;;;;6.30;4.70;;;;;;;15.42;82.38;100933.39;1697489;81;25774;-79
2021/09/14 00:28:12;;;;;;;5.95;4.28;;;;;;;15.41;82.33;100931.23;1725144;81;28290;-79
2021/09/14 00:30:39;;;;;;;4.67;4.28;;;;;;;15.39;82.37;100937.37;1750757;81;25786;-81
2021/09/14 00:33:06;;;;;;;6.75;5.25;;;;;;;15.38;82.32;100933.50;1695544;82;25876;-78
2021/09/14 00:35:33;;;;;;;6.87;4.92;;;;;;;15.35;82.31;100929.34;1682218;82;25893;-79
2021/09/14 00:38:00;;;;;;;6.05;5.42;;;;;;;15.34;82.28;100934.97;1754580;81;26456;-79
2021/09/14 00:40:27;;;;;;;10.43;5.53;;;;;;;15.33;82.44;100933.33;1737100;81;27554;-80
2021/09/14 00:42:54;;;;;;;6.72;5.08;;;;;;;15.32;82.48;100933.84;1697373;82;25842;-79
2021/09/14 00:45:21;;;;;;;7.83;5.75;;;;;;;15.32;82.58;100928.44;1698128;81;25879;-79
2021/09/14 00:47:48;;;;;;;9.75;5.95;;;;;;;15.31;82.80;100922.72;1758358;80;26233;-79
2021/09/14 00:50:15;;;;;;;7.72;6.12;;;;;;;15.33;82.93;100938.72;1745481;81;26526;-78
2021/09/14 00:52:42;;;;;;;11.35;7.95;;;;;;;15.32;82.88;100931.65;1706645;81;28113;-79
2021/09/14 00:55:11;;;;;;;13.98;8.23;;;;;;;15.33;83.17;100940.88;1690759;81;26510;-79
2021/09/14 00:57:38;;;;;;;9.55;6.70;;;;;;;15.35;83.25;100937.45;1759948;80;25734;-79
2021/09/14 01:00:07;;;;;;;14.87;7.55;;;;;;;15.39;83.45;100933.31;1750550;81;25855;-79
2021/09/14 01:02:34;;;;;;;10.45;7.28;;;;;;;15.42;83.58;100933.39;1691040;81;26021;-79
2021/09/14 01:05:04;;;;;;;9.40;6.30;;;;;;;15.44;83.70;100934.88;1667086;82;27508;-79
2021/09/14 01:07:31;;;;;;;9.93;6.40;;;;;;;15.44;83.62;100934.88;1751865;81;26522;-79
2021/09/14 01:09:59;;;;;;;8.48;6.58;;;;;;;15.43;83.61;100930.53;1757019;81;25910;-79
2021/09/14 01:12:27;;;;;;;6.65;5.80;;;;;;;15.43;83.62;100935.09;1711694;80;25943;-80
2021/09/14 01:14:56;;;;;;;7.17;5.58;;;;;;;15.43;83.63;100937.80;1676281;82;25920;-79
2021/09/14 01:17:25;;;;;;;8.43;5.80;;;;;;;15.45;83.67;100938.42;1753243;81;27577;-78
2021/09/14 01:19:52;;;;;;;9.25;6.80;;;;;;;15.47;83.74;100928.75;1741888;81;25816;-78
2021/09/14 01:22:19;;;;;;;9.75;5.92;;;;;;;15.47;83.80;100934.98;1737178;80;25938;-79
2021/09/14 01:24:46;;;;;;;8.45;6.15;;;;;;;15.50;84.00;100933.73;1682680;82;26511;-80
2021/09/14 01:27:13;;;;;;;9.53;5.75;;;;;;;15.51;84.01;100928.63;1755846;81;25925;-79
2021/09/14 01:32:29;;;;;;;11.40;8.68;;;;;;;15.52;84.27;100930.31;1746733;80;25775;-79
2021/09/14 01:35:10;;;;;;;10.95;7.33;;;;;;;15.53;84.32;100927.90;1679087;81;26804;-79
2021/09/14 01:38:49;;;;;;;10.75;6.65;;;;;;;15.54;84.36;100930.41;1717617;80;25744;-79
2021/09/14 01:41:17;;;;;;;10.32;6.25;;;;;;;15.56;84.39;100928.84;1765891;80;25760;-78
2021/09/14 01:43:44;;;;;;;8.00;5.78;;;;;;;15.54;84.52;100934.46;1727158;81;27354;-80
2021/09/14 01:46:12;;;;;;;11.68;6.17;;;;;;;15.54;84.42;100934.46;1740181;80;26627;-79
2021/09/14 01:48:39;;;;;;;10.05;6.17;;;;;;;15.53;84.45;100932.79;1720770;80;25710;-79
2021/09/14 01:51:06;;;;;;;7.37;4.92;;;;;;;15.53;84.54;100931.44;1775371;80;26455;-79
2021/09/14 01:53:33;;;;;;;7.65;5.50;;;;;;;15.53;84.62;100927.90;1742319;80;25306;-80
2021/09/14 01:56:05;;;;;;;12.63;6.10;;;;;;;15.50;84.37;100935.09;1734004;80;28332;-78
2021/09/14 01:58:31;;;;;;;5.62;4.83;;;;;;;15.49;84.36;100932.06;1747983;80;25859;-78
2021/09/14 02:01:06;;;;;;;8.80;5.62;;;;;;;15.44;84.35;100926.78;1741788;81;25921;-79
2021/09/14 02:23:44;;;;;;;7.75;6.55;;;;;;;15.44;84.93;100933.53;1752858;81;25784;-79
2021/09/14 02:44:43;;;;;;;9.38;6.45;;;;;;;15.53;85.75;100932.79;1775602;80;25968;-78
2021/09/14 03:00:44;;;;;;;7.53;5.78;;;;;;;15.51;86.08;100932.17;1690786;81;25957;-79
2021/09/14 03:03:11;;;;;;;7.37;5.75;;;;;;;15.50;86.17;100925.13;1701036;80;27547;-79
2021/09/14 03:05:38;;;;;;;8.53;6.40;;;;;;;15.51;86.28;100933.52;1762925;80;25894;-79
2021/09/14 03:08:06;;;;;;;9.10;7.47;;;;;;;15.51;86.29;100929.47;1726528;81;26625;-79
2021/09/14 03:10:34;;;;;;;11.20;7.17;;;;;;;15.53;86.38;100934.66;1727338;81;25768;-79
2021/09/14 03:13:01;;;;;;;13.35;8.88;;;;;;;15.54;86.39;100937.67;1731585;80;25772;-78
2021/09/14 03:15:29;;;;;;;18.60;11.48;;;;;;;15.56;86.46;100941.83;1744182;80;27617;-78
2021/09/14 03:17:58;;;;;;;8.63;7.12;;;;;;;15.57;86.43;100938.07;1706269;82;25891;-79
2021/09/14 03:20:25;;;;;;;6.90;6.20;;;;;;;15.59;86.54;100935.19;1741915;80;25327;-79
2021/09/14 03:22:52;;;;;;;10.82;7.10;;;;;;;15.58;86.55;100938.91;1718297;80;25809;-79
2021/09/14 03:25:21;;;;;;;9.28;5.87;;;;;;;15.55;86.45;100940.16;1744132;81;25770;-79
2021/09/14 03:27:48;;;;;;;9.30;5.35;;;;;;;15.54;86.44;100939.02;1710283;82;27221;-79
2021/09/14 03:30:16;;;;;;;6.87;5.35;;;;;;;15.49;86.33;100945.05;1660516;82;26598;-78
2021/09/14 03:32:44;;;;;;;8.03;5.62;;;;;;;15.45;86.45;100938.42;1739062;81;25805;-79
2021/09/14 03:35:11;;;;;;;9.10;4.90;;;;;;;15.43;86.48;100943.20;1758097;81;25817;-79
2021/09/14 03:37:38;;;;;;;10.00;4.95;;;;;;;15.40;86.45;100938.17;1715435;82;25966;-79
2021/09/14 03:40:08;;;;;;;7.60;5.65;;;;;;;15.39;86.50;100937.37;1702175;80;27530;-80
2021/09/14 03:42:35;;;;;;;8.18;5.80;;;;;;;15.38;86.66;100938.39;1691016;82;25809;-79
2021/09/14 03:45:04;;;;;;;7.35;5.92;;;;;;;15.40;86.72;100944.41;1717540;80;25835;-79
2021/09/14 03:47:31;;;;;;;5.83;5.20;;;;;;;15.40;86.78;100944.41;1725988;81;26515;-79
2021/09/14 03:49:58;;;;;;;7.65;5.58;;;;;;;15.42;86.88;100950.94;1722317;81;25831;-79
2021/09/14 03:52:25;;;;;;;7.03;5.87;;;;;;;15.40;86.89;100949.81;1684608;80;28380;-79
2021/09/14 03:54:57;;;;;;;7.30;5.92;;;;;;;15.39;86.85;100953.56;1751551;81;26399;-79
2021/09/14 03:57:21;;;;;;;8.35;5.80;;;;;;;15.40;87.01;100955.72;1751750;80;26716;-79
2021/09/14 03:59:49;;;;;;;14.83;8.40;;;;;;;15.41;87.04;100950.13;1709840;81;25927;-79
2021/09/14 04:02:30;;;;;;;18.12;11.57;;;;;;;15.42;87.13;100957.69;1716251;82;25890;-79
2021/09/14 04:10:12;;;;;;;15.50;10.60;;;;;;;15.47;87.20;100952.53;1732130;80;25895;-79
2021/09/14 04:12:39;;;;;;;12.85;7.37;;;;;;;15.48;87.28;100959.61;1741616;80;26134;-79
2021/09/14 04:15:07;;;;;;;11.22;6.80;;;;;;;15.49;87.35;100957.20;1739249;80;25817;-78
2021/09/14 04:17:34;;;;;;;9.08;7.08;;;;;;;15.48;87.31;100955.56;1746617;80;27948;-79
2021/09/14 04:20:01;;;;;;;8.68;7.37;;;;;;;15.49;87.29;100959.06;1707373;80;26404;-78
2021/09/14 04:22:30;;;;;;;8.45;6.55;;;;;;;15.48;87.26;100959.61;1691531;81;25814;-79
2021/09/14 04:24:59;;;;;;;9.08;7.15;;;;;;;15.50;87.25;100960.73;1759096;80;25775;-79
2021/09/14 04:27:27;;;;;;;9.13;6.78;;;;;;;15.48;87.27;100967.70;1688727;81;25870;-79
2021/09/14 04:29:54;;;;;;;13.05;7.20;;;;;;;15.48;87.18;100971.76;1747152;80;27558;-78
2021/09/14 04:32:22;;;;;;;9.93;6.72;;;;;;;15.48;87.15;100969.56;1704935;81;26617;-79
2021/09/14 04:34:50;;;;;;;14.33;10.30;;;;;;;15.47;87.16;100974.64;1772392;79;26506;-79
2021/09/14 04:37:18;;;;;;;22.13;13.65;;;;;;;15.48;87.26;100979.02;1724795;82;25899;-80
2021/09/14 04:39:45;;;;;;;22.80;12.13;;;;;;;15.49;87.37;100978.80;1728394;81;25856;-79
2021/09/14 04:42:14;;;;;;;13.60;9.58;;;;;;;15.49;87.37;100970.70;1703496;81;27546;-79
2021/09/14 04:44:41;;;;;;;12.85;9.48;;;;;;;15.52;87.45;100972.16;1766644;79;25746;-79
2021/09/14 04:47:08;;;;;;;12.95;8.63;;;;;;;15.52;87.55;100970.30;1713194;82;25862;-79
2021/09/14 04:49:35;;;;;;;9.30;7.35;;;;;;;15.53;87.56;100973.80;1709472;81;26171;-79
2021/09/14 04:52:06;;;;;;;10.05;7.17;;;;;;;15.53;87.58;100980.55;1715706;80;25822;-78
2021/09/14 04:54:37;;;;;;;10.48;6.85;;;;;;;15.53;87.56;100973.80;1736404;81;27478;-79
2021/09/14 04:57:05;;;;;;;10.23;6.05;;;;;;;15.52;87.53;100981.61;1736687;80;26577;-79
2021/09/14 04:59:32;;;;;;;9.25;5.92;;;;;;;15.49;87.40;100978.80;1708410;81;25771;-79
2021/09/14 05:01:59;;;;;;;8.65;5.95;;;;;;;15.50;87.42;100981.83;1731732;80;25721;-79
2021/09/14 05:04:27;;;;;;;6.67;5.95;;;;;;;15.50;87.37;100980.98;1766072;80;25715;-79
2021/09/14 05:06:54;;;;;;;9.75;6.90;;;;;;;15.49;87.42;100980.16;1730344;80;28249;-79
2021/09/14 05:09:23;;;;;;;7.30;5.90;;;;;;;15.51;87.55;100982.63;1742050;80;25368;-78
2021/09/14 05:11:50;;;;;;;7.78;6.20;;;;;;;15.52;87.74;100989.19;1768470;80;26568;-79
2021/09/14 05:14:19;;;;;;;6.78;5.92;;;;;;;15.55;87.79;100987.92;1696131;80;26072;-79
2021/09/14 05:16:47;;;;;;;9.25;5.87;;;;;;;15.54;87.71;100988.47;1752105;81;25830;-79
2021/09/14 05:19:33;;;;;;;8.55;5.95;;;;;;;15.54;87.74;100983.58;1732108;81;27755;-79
2021/09/14 05:22:01;;;;;;;9.18;5.47;;;;;;;15.55;87.90;100984.70;1710671;81;25883;-78
2021/09/14 05:24:31;;;;;;;8.55;5.80;;;;;;;15.57;87.98;100988.02;1734375;80;25866;-79
2021/09/14 05:26:59;;;;;;;6.50;5.75;;;;;;;15.61;88.16;100983.86;1785267;79;25845;-79
2021/09/14 05:29:27;;;;;;;7.83;6.17;;;;;;;15.63;88.21;100985.02;1762623;80;25779;-78
2021/09/14 05:31:55;;;;;;;9.25;6.20;;;;;;;15.66;88.28;100987.28;1761579;79;27618;-79
2021/09/14 05:34:24;;;;;;;8.48;7.15;;;;;;;15.69;88.35;100985.53;1746849;81;25804;-79
2021/09/14 05:36:52;;;;;;;8.23;6.83;;;;;;;15.72;88.42;100990.49;1785281;79;25766;-80
2021/09/14 05:39:21;;;;;;;8.55;6.20;;;;;;;15.74;88.47;100987.89;1780110;79;25780;-79
2021/09/14 05:41:49;;;;;;;9.65;6.83;;;;;;;15.79;88.51;100995.38;1726549;81;25796;-79
2021/09/14 05:44:16;;;;;;;10.13;6.70;;;;;;;15.82;88.66;100988.20;1708047;81;27369;-78
2021/09/14 05:46:44;;;;;;;14.95;6.97;;;;;;;15.84;88.78;100991.52;1785143;79;25691;-79
2021/09/14 05:49:12;;;;;;;10.55;6.90;;;;;;;15.88;88.82;100991.41;1756413;81;26512;-79
2021/09/14 05:51:40;;;;;;;8.98;6.45;;;;;;;15.89;88.79;100993.89;1701025;81;26000;-79
2021/09/14 05:54:08;;;;;;;7.50;6.70;;;;;;;15.93;88.87;100990.27;1702156;81;25866;-79
2021/09/14 05:56:37;;;;;;;11.55;6.70;;;;;;;15.95;88.90;100990.34;1779423;79;28250;-79
2021/09/14 05:59:05;;;;;;;10.63;6.58;;;;;;;15.97;88.94;100992.84;1768521;79;25933;-79
2021/09/14 06:01:32;;;;;;;9.25;6.75;;;;;;;15.98;88.89;100995.84;1736434;80;26499;-79
2021/09/14 06:04:01;;;;;;;9.08;6.50;;;;;;;15.98;88.86;100993.98;1692524;82;26279;-79
2021/09/14 06:06:28;;;;;;;11.00;6.80;;;;;;;15.99;88.80;100996.16;1717531;81;25788;-79
2021/09/14 06:08:56;;;;;;;9.38;7.60;;;;;;;16.00;88.71;100991.89;1773776;80;28175;-80
2021/09/14 06:11:24;;;;;;;12.15;8.53;;;;;;;16.04;88.64;100999.04;1774046;80;25969;-79
2021/09/14 06:13:52;;;;;;;11.70;8.93;;;;;;;16.08;88.55;101006.52;1669221;80;25926;-78
2021/09/14 06:16:19;;;;;;;14.65;9.78;;;;;;;16.14;88.51;101002.95;1770293;80;25794;-79
2021/09/14 06:18:46;;;;;;;13.95;10.32;;;;;;;16.23;88.40;101002.73;1744856;81;25892;-78
2021/09/14 06:21:14;;;;;;;12.80;10.30;;;;;;;16.30;88.44;101000.30;1699270;80;27577;-79
2021/09/14 06:23:41;;;;;;;9.48;7.97;;;;;;;16.39;88.32;101000.89;1718587;80;26564;-80
2021/09/14 06:26:10;;;;;;;12.18;8.25;;;;;;;16.46;87.90;101005.24;1717397;82;25938;-80
2021/09/14 06:28:38;;;;;;;14.83;8.80;;;;;;;16.51;87.99;101005.44;1720017;82;25841;-78
2021/09/14 06:31:05;;;;;;;11.83;7.75;;;;;;;16.58;87.87;101004.89;1724999;81;25932;-79
2021/09/14 06:33:33;;;;;;;9.93;7.53;;;;;;;16.67;87.75;101007.66;1726768;80;27502;-79
2021/09/14 06:36:00;;;;;;;8.75;7.62;;;;;;;16.72;87.34;101005.11;1771498;80;26147;-79
2021/09/14 06:38:32;;;;;;;10.18;7.15;;;;;;;16.78;86.99;101002.92;1743479;81;25820;-80
2021/09/14 06:40:59;;;;;;;10.90;7.58;;;;;;;16.83;86.67;101003.08;1708959;83;25787;-79
2021/09/14 06:43:34;;;;;;;8.70;6.87;;;;;;;16.90;86.66;101011.16;1697881;81;25903;-78
2021/09/14 06:46:09;;;;;;;10.95;8.05;;;;;;;16.96;86.46;101010.28;1771275;80;28247;-79
2021/09/14 06:48:38;;;;;;;10.38;6.72;;;;;;;17.04;86.23;101003.80;1741614;80;25957;-81
2021/09/14 06:51:05;;;;;;;9.70;6.50;;;;;;;17.10;85.92;101006.45;1675554;81;25965;-79
2021/09/14 06:53:32;;;;;;;10.30;6.37;;;;;;;17.16;85.70;101011.50;1697699;82;26528;-79
2021/09/14 06:55:59;;;;;;;8.28;6.35;;;;;;;17.21;85.49;101003.56;1723397;81;25628;-79
2021/09/14 06:58:28;;;;;;;6.37;4.87;;;;;;;17.28;85.49;101002.99;1776128;79;27609;-79
2021/09/14 07:00:55;;;;;;;6.83;4.10;;;;;;;17.38;85.22;101012.80;1738088;79;26765;-79
2021/09/14 07:03:22;;;;;;;9.85;5.87;;;;;;;17.45;84.45;101012.22;1711283;80;25808;-79
2021/09/14 07:05:49;;;;;;;6.08;4.53;;;;;;;17.50;84.49;101005.63;1783282;79;26028;-81
2021/09/14 07:08:16;;;;;;;6.00;4.22;;;;;;;17.54;83.83;101009.03;1786270;79;25796;-79
2021/09/14 07:10:43;;;;;;;8.15;4.70;;;;;;;17.61;83.82;101013.03;1721287;80;27273;-79
2021/09/14 07:13:10;;;;;;;7.30;4.85;;;;;;;17.68;83.56;101009.20;1681775;80;26367;-80
2021/09/14 07:15:37;;;;;;;7.35;4.40;;;;;;;17.77;83.24;101008.93;1772586;80;26476;-80
2021/09/14 07:18:04;;;;;;;6.55;4.30;;;;;;;17.86;83.08;101010.27;1757976;81;25876;-79
2021/09/14 07:20:31;;;;;;;5.25;4.08;;;;;;;17.98;83.11;101020.18;1739589;79;25853;-79
2021/09/14 07:22:58;;;;;;;8.20;3.60;;;;;;;18.09;82.74;101012.63;1700639;81;27037;-80
2021/09/14 07:25:26;;;;;;;3.92;2.87;;;;;;;18.15;81.94;101009.04;1780130;79;25958;-79
2021/09/14 07:27:54;;;;;;;5.78;3.08;;;;;;;18.19;81.70;101012.12;1783844;79;25802;-79
2021/09/14 07:30:21;;;;;;;6.17;2.58;;;;;;;18.22;81.29;101010.33;1690697;81;25895;-79
2021/09/14 07:32:54;;;;;;;4.35;2.45;;;;;;;18.28;81.38;101016.19;1728174;80;25769;-80
2021/09/14 07:35:17;;;;;;;3.62;2.17;;;;;;;18.35;81.15;101015.04;1698859;81;27547;-79
2021/09/14 07:37:44;;;;;;;3.62;2.30;;;;;;;18.43;81.31;101016.08;1729075;81;26304;-80
2021/09/14 07:40:12;;;;;;;4.25;2.40;;;;;;;18.52;80.90;101015.82;1743761;81;25791;-80
2021/09/14 07:42:39;;;;;;;3.62;1.70;;;;;;;18.57;80.32;101018.14;1728631;81;25919;-79
2021/09/14 07:45:07;;;;;;;4.60;1.80;;;;;;;18.63;80.49;101015.02;1780080;79;25893;-79
2021/09/14 07:47:34;;;;;;;2.77;2.25;;;;;;;18.67;80.14;101019.77;1749689;81;27455;-79
2021/09/14 07:50:01;;;;;;;4.55;2.08;;;;;;;18.69;80.10;101014.94;1749871;81;26074;-79
2021/09/14 07:52:28;;;;;;;4.03;2.45;;;;;;;18.75;79.63;101021.34;1710470;79;25311;-80
2021/09/14 07:54:55;;;;;;;2.27;1.75;;;;;;;18.79;79.42;101021.19;1744952;81;26237;-79
2021/09/14 07:57:22;;;;;;;2.90;1.75;;;;;;;18.85;78.18;101017.55;1786016;79;25472;-79
2021/09/14 07:59:49;;;;;;;4.33;1.52;;;;;;;18.92;78.77;101021.84;1741219;80;27548;-80
2021/09/14 08:02:16;;;;;;;3.00;1.95;;;;;;;19.05;78.35;101020.81;1708280;81;26574;-80
2021/09/14 08:04:43;;;;;;;3.67;2.10;;;;;;;19.09;78.36;101020.64;1773005;80;25748;-80
2021/09/14 08:07:10;;;;;;;2.72;2.30;;;;;;;19.16;77.78;101011.88;1770368;80;25753;-80
2021/09/14 08:09:37;;;;;;;4.45;2.00;;;;;;;19.20;77.50;101014.42;1720663;80;26430;-80
2021/09/14 08:12:05;;;;;;;4.03;2.42;;;;;;;19.20;77.23;101011.14;1690751;81;27504;-80
2021/09/14 08:14:32;;;;;;;4.80;2.80;;;;;;;19.27;77.09;101018.39;1773123;80;25953;-79
2021/09/14 08:16:59;;;;;;;3.50;2.08;;;;;;;19.32;76.97;101015.78;1699735;81;25787;-80
2021/09/14 08:19:26;;;;;;;2.90;2.00;;;;;;;19.36;76.82;101019.71;1742299;80;26156;-79
2021/09/14 08:21:53;;;;;;;3.92;2.33;;;;;;;19.41;76.75;101021.20;1663239;81;25831;-80
2021/09/14 08:24:21;;;;;;;3.02;2.00;;;;;;;19.48;76.52;101024.09;1751673;81;28718;-79
2021/09/14 08:26:48;;;;;;;6.40;2.60;;;;;;;19.53;75.75;101020.16;1741657;81;25889;-80
2021/09/14 08:29:15;;;;;;;2.67;1.90;;;;;;;19.56;75.40;101022.42;1728280;80;26558;-80
2021/09/14 08:31:42;;;;;;;2.35;2.10;;;;;;;19.59;75.03;101024.64;1697376;81;26481;-79
2021/09/14 08:34:09;;;;;;;4.30;2.22;;;;;;;19.64;73.96;101026.13;1775804;79;25754;-80
2021/09/14 08:36:37;;;;;;;3.35;2.30;;;;;;;19.67;74.55;101020.23;1779504;80;27527;-80
2021/09/14 08:39:04;;;;;;;3.55;2.08;;;;;;;19.75;74.49;101022.59;1656228;82;26644;-79
2021/09/14 08:41:31;;;;;;;3.50;2.05;;;;;;;19.82;73.94;101023.28;1719482;82;25922;-80
2021/09/14 08:43:59;;;;;;;2.33;2.12;;;;;;;19.96;74.83;101019.80;1729949;81;25834;-80
2021/09/14 08:46:26;;;;;;;4.37;2.40;;;;;;;20.11;74.55;101023.38;1775515;80;26574;-80
2021/09/14 08:48:53;;;;;;;4.03;2.47;;;;;;;20.27;73.44;101024.89;1743705;80;27904;-79
2021/09/14 08:51:20;;;;;;;3.77;2.02;;;;;;;20.28;71.86;101029.25;1739190;80;25840;-79
2021/09/14 08:53:47;;;;;;;5.75;2.42;;;;;;;20.22;72.37;101034.81;1702883;81;25843;-80
2021/09/14 08:56:15;;;;;;;3.95;2.72;;;;;;;20.13;72.41;101034.33;1744716;81;26186;-80
2021/09/14 08:58:42;;;;;;;3.35;2.60;;;;;;;20.08;72.68;101041.56;1716469;81;25857;-80
2021/09/14 09:01:13;;;;;;;6.03;2.70;;;;;;;19.97;72.04;101044.03;1713279;81;28210;-80
2021/09/14 09:03:42;;;;;;;4.45;2.50;;;;;;;19.85;72.15;101043.22;1718873;82;26636;-79
2021/09/14 09:06:12;;;;;;;4.60;2.47;;;;;;;19.79;72.20;101045.53;1746958;81;25991;-80
2021/09/14 09:08:38;;;;;;;3.15;2.50;;;;;;;19.72;72.05;101043.97;1726371;81;26124;-80
2021/09/14 09:11:09;;;;;;;4.15;2.67;;;;;;;19.64;71.95;101039.72;1700378;80;25367;-79
2021/09/14 09:13:45;;;;;;;;;;;;;;;19.62;72.41;101039.66;1723858;80;27508;-80
2021/09/14 09:16:21;;;;;;;2.30;2.00;;;;;;;19.72;71.99;101042.09;1747699;81;25877;-80
2021/09/14 09:18:59;;;;;;;3.22;2.77;;;;;;;19.79;71.16;101042.80;1725481;80;25937;-81
2021/09/14 09:21:34;;;;;;;4.83;2.40;;;;;;;19.80;70.85;101041.72;1780015;79;25555;-79
2021/09/14 09:24:08;;;;;;;6.87;2.15;;;;;;;19.85;70.74;101048.65;1721764;81;25992;-80
2021/09/14 09:26:42;;;;;;;4.53;2.60;;;;;;;19.90;70.69;101054.22;1736213;80;27459;-80
2021/09/14 09:29:13;;;;;;;4.42;3.00;;;;;;;19.91;70.07;101049.59;1729235;80;25848;-79
2021/09/14 09:31:46;;;;;;;3.25;2.42;;;;;;;19.94;70.52;101060.00;1720656;81;26440;-79
2021/09/14 09:34:13;;;;;;;3.00;2.17;;;;;;;19.96;70.35;101052.43;1727630;81;25812;-79
2021/09/14 09:36:44;;;;;;;3.60;2.70;;;;;;;19.95;69.70;101054.88;1752058;81;26570;-78
2021/09/14 09:39:14;;;;;;;3.80;2.50;;;;;;;19.92;69.28;101052.61;1719001;81;27343;-80
2021/09/14 09:41:54;;;;;;;3.17;2.83;;;;;;;19.88;68.89;101050.91;1738851;80;26542;-81
2021/09/14 09:44:22;;;;;;;3.20;2.62;;;;;;;19.84;69.25;101049.73;1751780;80;26614;-79
2021/09/14 09:46:58;;;;;;;2.70;2.50;;;;;;;19.88;69.19;101044.64;1737032;80;25857;-79
2021/09/14 09:49:25;;;;;;;3.05;2.40;;;;;;;19.91;69.37;101045.50;1749484;81;25828;-78
2021/09/14 09:51:54;;;;;;;4.80;2.60;;;;;;;20.00;69.23;101045.45;1745940;80;27405;-78
2021/09/14 09:54:21;;;;;;;2.92;2.30;;;;;;;20.12;69.70;101043.56;1726588;81;26181;-79
2021/09/14 09:56:50;;;;;;;5.78;2.83;;;;;;;20.22;68.59;101038.90;1756462;81;25302;-79
2021/09/14 09:59:18;;;;;;;3.12;2.50;;;;;;;20.30;68.25;101042.08;1721508;80;25913;-80
2021/09/14 10:02:19;;;;;;;3.10;2.77;;;;;;;20.39;67.86;101037.09;1724311;80;25728;-79
2021/09/14 10:04:52;;;;;;;3.85;3.22;;;;;;;20.52;68.71;101036.82;1716826;80;28323;-80
2021/09/14 10:07:20;;;;;;;9.33;4.75;;;;;;;20.65;68.21;101038.74;1745220;81;25303;-80
2021/09/14 10:09:53;;;;;;;7.67;4.03;;;;;;;20.75;67.69;101037.57;1720814;80;25940;-80
2021/09/14 10:12:28;;;;;;;4.25;3.52;;;;;;;20.80;67.63;101038.73;1748563;80;26142;-80
2021/09/14 10:15:04;;;;;;;5.12;2.95;;;;;;;20.87;66.98;101029.34;1711326;81;25767;-79
2021/09/14 10:17:48;;;;;;;5.60;3.17;;;;;;;20.92;65.86;101028.61;1745141;81;27509;-80
2021/09/14 10:20:16;;;;;;;3.60;3.25;;;;;;;21.00;66.38;101026.87;1693375;81;25786;-80
2021/09/14 10:22:46;;;;;;;4.37;2.98;;;;;;;21.10;66.71;101028.45;1720078;80;25814;-80
2021/09/14 10:25:21;;;;;;;4.12;3.20;;;;;;;21.23;65.77;101032.22;1707201;80;25894;-79
2021/09/14 10:27:48;;;;;;;3.58;3.12;;;;;;;21.24;65.53;101030.61;1752895;81;26005;-80
2021/09/14 10:30:23;;;;;;;3.77;3.27;;;;;;;21.20;65.46;101030.81;1726513;80;27518;-79
2021/09/14 10:32:50;;;;;;;5.55;3.72;;;;;;;21.14;65.02;101033.16;1743369;81;25773;-79
2021/09/14 10:35:33;;;;;;;6.08;3.30;;;;;;;21.11;64.13;101031.44;1702753;80;25955;-80
2021/09/14 10:38:11;;;;;;;5.87;3.83;;;;;;;21.04;63.61;101032.16;1770412;80;26648;-79
2021/09/14 10:40:47;;;;;;;5.42;3.87;;;;;;;21.02;63.93;101031.54;1724818;81;25818;-79
2021/09/14 10:43:30;;;;;;;5.30;3.70;;;;;;;21.04;63.76;101038.41;1745082;80;28078;-79
2021/09/14 10:45:59;;;;;;;4.17;3.15;;;;;;;21.06;63.99;101034.92;1735161;80;25874;-79
2021/09/14 10:48:33;;;;;;;5.70;3.58;;;;;;;21.08;64.44;101036.87;1742741;81;26783;-80
2021/09/14 10:51:14;;;;;;;3.72;3.42;;;;;;;21.10;64.32;101033.36;1692987;80;26307;-79
2021/09/14 10:53:41;;;;;;;;;;;;;;;21.11;63.81;101030.91;1728132;81;25857;-79
2021/09/14 10:56:10;;;;;;;3.35;3.05;;;;;;;21.08;64.08;101031.95;1755634;81;27556;-80
2021/09/14 10:58:44;;;;;;;4.22;3.60;;;;;;;21.05;63.70;101033.79;1747119;79;25731;-79
2021/09/14 11:01:25;;;;;;;5.53;3.55;;;;;;;21.08;63.25;101035.51;1719646;81;25882;-81
2021/09/14 11:04:05;;;;;;;4.08;3.67;;;;;;;21.09;64.06;101033.59;1740123;80;25847;-80
2021/09/14 11:06:33;;;;;;;5.50;3.95;;;;;;;21.14;64.31;101037.25;1771035;80;32132;-80
2021/09/14 11:09:02;;;;;;;5.65;5.10;;;;;;;21.20;64.32;101039.52;1745609;81;27516;-80
2021/09/14 11:11:30;;;;;;;5.72;5.22;;;;;;;21.18;63.62;101039.77;1745533;80;26000;-80
2021/09/14 11:13:57;;;;;;;6.42;5.83;;;;;;;21.09;63.33;101033.59;1744567;80;26029;-80
2021/09/14 11:16:24;;;;;;;6.47;5.50;;;;;;;20.99;63.83;101036.94;1771278;80;25881;-79
2021/09/14 11:18:52;;;;;;;5.75;5.25;;;;;;;20.96;64.21;101031.97;1713953;82;25884;-79
2021/09/14 11:21:20;;;;;;;5.90;5.40;;;;;;;20.95;64.58;101027.61;1726104;80;27233;-80
2021/09/14 11:23:49;;;;;;;5.95;5.15;;;;;;;20.91;63.75;101025.08;1711018;81;26581;-80
2021/09/14 11:26:18;;;;;;;5.10;4.70;;;;;;;20.83;63.25;101028.17;1728798;81;26369;-80
2021/09/14 11:28:58;;;;;;;7.92;5.00;;;;;;;20.72;63.00;101035.88;1745568;80;25913;-80
2021/09/14 11:31:31;;;;;;;5.53;4.90;;;;;;;20.65;62.61;101035.19;1745431;80;25871;-80
2021/09/14 11:34:01;;;;;;;5.47;4.97;;;;;;;20.64;64.11;101032.16;1691750;82;27580;-79
2021/09/14 11:36:28;;;;;;;5.03;4.62;;;;;;;20.65;63.40;101029.74;1744457;81;25795;-80
2021/09/14 11:39:01;;;;;;;6.42;3.95;;;;;;;20.62;61.63;101031.05;1713057;82;25378;-80
2021/09/14 11:41:37;;;;;;;4.53;4.12;;;;;;;20.53;61.51;101035.21;1716509;80;25828;-79
2021/09/14 11:44:07;;;;;;;4.75;4.28;;;;;;;20.53;62.02;101033.05;1710402;81;25862;-80
2021/09/14 11:46:34;;;;;;;6.87;4.85;;;;;;;20.52;61.42;101032.73;1774786;80;27596;-79
2021/09/14 11:49:03;;;;;;;5.30;4.47;;;;;;;20.51;61.74;101028.34;1713968;82;25870;-80
2021/09/14 11:51:39;;;;;;;5.10;4.62;;;;;;;20.52;62.33;101032.22;1712313;81;25762;-80
2021/09/14 11:54:12;;;;;;;5.15;4.42;;;;;;;20.53;61.46;101036.57;1692973;81;26504;-80
2021/09/14 11:56:39;;;;;;;5.83;5.33;;;;;;;20.55;61.81;101032.27;1715557;82;25836;-80
2021/09/14 11:59:17;;;;;;;6.05;5.50;;;;;;;20.59;61.94;101030.72;1714628;82;28257;-80
2021/09/14 12:01:45;;;;;;;5.08;4.45;;;;;;;20.63;62.38;101035.97;1725253;80;25844;-79
2021/09/14 12:04:18;;;;;;;4.25;3.92;;;;;;;20.65;62.03;101031.94;1721169;81;25551;-80
2021/09/14 12:06:54;;;;;;;5.00;4.50;;;;;;;20.66;61.00;101028.66;1744898;81;26500;-80
2021/09/14 12:09:23;;;;;;;5.00;4.60;;;;;;;20.69;61.33;101023.58;1715472;81;25918;-80
2021/09/14 12:12:07;;;;;;;5.10;4.58;;;;;;;20.70;60.79;101025.21;1707441;80;27494;-80
2021/09/14 12:14:35;;;;;;;6.70;5.37;;;;;;;20.74;61.35;101026.38;1718014;81;25839;-81
2021/09/14 12:17:04;;;;;;;5.50;4.97;;;;;;;20.78;62.42;101020.45;1756733;80;26604;-81
2021/09/14 12:19:33;;;;;;;5.50;5.00;;;;;;;20.78;61.63;101025.38;1758868;81;25865;-80
2021/09/14 12:22:01;;;;;;;5.67;5.17;;;;;;;20.81;62.30;101027.59;1776422;80;25570;-81
2021/09/14 12:24:28;;;;;;;7.08;6.37;;;;;;;20.81;62.73;101016.70;1743695;80;27652;-81
2021/09/14 12:26:55;;;;;;;5.90;5.42;;;;;;;20.87;62.34;101015.72;1708132;80;26690;-80
2021/09/14 12:29:23;;;;;;;6.35;5.17;;;;;;;20.89;62.37;101017.69;1720440;81;25826;-80
2021/09/14 12:31:50;;;;;;;5.72;4.90;;;;;;;20.92;60.88;101019.08;1714277;81;26532;-80
2021/09/14 12:34:17;;;;;;;5.40;4.90;;;;;;;20.98;61.05;101016.20;1737345;81;25911;-80